sensor_id;sensor_type;location;lat;lon;timestamp;temperature;humidity
34985;DHT22;21190;58.750;17.004;2023-05-07T00:02:14;2.10;99.90
34985;DHT22;21190;58.750;17.004;2023-05-07T00:04:42;2.10;99.90
34985;DHT22;21190;58.750;17.004;2023-05-07T00:07:09;2.10;99.90
34985;DHT22;21190;58.750;17.004;2023-05-07T00:09:36;2.10;99.90
34985;DHT22;21190;58.750;17.004;2023-05-07T00:12:03;2.00;99.90
34985;DHT22;21190;58.750;17.004;2023-05-07T00:14:30;1.90;99.90
34985;DHT22;21190;58.750;17.004;2023-05-07T00:16:57;1.90;99.90
34985;DHT22;21190;58.750;17.004;2023-05-07T00:19:24;1.80;99.90
34985;DHT22;21190;58.750;17.004;2023-05-07T00:21:51;1.80;99.90
34985;DHT22;21190;58.750;17.004;2023-05-07T00:24:20;1.80;99.90
34985;DHT22;21190;58.750;17.004;2023-05-07T00:26:46;1.70;99.90
34985;DHT22;21190;58.750;17.004;2023-05-07T00:29:13;1.70;99.90
34985;DHT22;21190;58.750;17.004;2023-05-07T00:31:40;1.60;99.90
34985;DHT22;21190;58.750;17.004;2023-05-07T00:34:07;1.50;99.90
34985;DHT22;21190;58.750;17.004;2023-05-07T00:36:34;1.50;99.90
34985;DHT22;21190;58.750;17.004;2023-05-07T00:39:01;1.40;99.90
34985;DHT22;21190;58.750;17.004;2023-05-07T00:41:30;1.40;99.90
34985;DHT22;21190;58.750;17.004;2023-05-07T00:43:59;1.40;99.90
34985;DHT22;21190;58.750;17.004;2023-05-07T00:46:30;1.30;99.90
34985;DHT22;21190;58.750;17.004;2023-05-07T00:48:58;1.20;99.90
34985;DHT22;21190;58.750;17.004;2023-05-07T00:51:26;1.20;99.90
34985;DHT22;21190;58.750;17.004;2023-05-07T00:53:54;1.20;99.90
34985;DHT22;21190;58.750;17.004;2023-05-07T00:56:21;1.10;99.90
34985;DHT22;21190;58.750;17.004;2023-05-07T00:58:49;1.00;99.90
34985;DHT22;21190;58.750;17.004;2023-05-07T01:01:16;1.00;99.90
34985;DHT22;21190;58.750;17.004;2023-05-07T01:03:43;1.00;99.90
34985;DHT22;21190;58.750;17.004;2023-05-07T01:06:12;1.00;99.90
34985;DHT22;21190;58.750;17.004;2023-05-07T01:08:41;0.90;99.90
34985;DHT22;21190;58.750;17.004;2023-05-07T01:11:09;0.90;99.90
34985;DHT22;21190;58.750;17.004;2023-05-07T01:13:36;0.90;99.90
34985;DHT22;21190;58.750;17.004;2023-05-07T01:16:04;0.80;99.90
34985;DHT22;21190;58.750;17.004;2023-05-07T01:18:31;0.80;99.90
34985;DHT22;21190;58.750;17.004;2023-05-07T01:20:59;0.80;99.90
34985;DHT22;21190;58.750;17.004;2023-05-07T01:23:29;0.70;99.90
34985;DHT22;21190;58.750;17.004;2023-05-07T01:25:57;0.70;99.90
34985;DHT22;21190;58.750;17.004;2023-05-07T01:28:23;0.70;99.90
34985;DHT22;21190;58.750;17.004;2023-05-07T01:30:53;0.70;99.90
34985;DHT22;21190;58.750;17.004;2023-05-07T01:33:22;0.70;99.90
34985;DHT22;21190;58.750;17.004;2023-05-07T01:35:52;0.70;99.90
34985;DHT22;21190;58.750;17.004;2023-05-07T01:38:21;0.60;99.90
34985;DHT22;21190;58.750;17.004;2023-05-07T01:40:49;0.60;99.90
34985;DHT22;21190;58.750;17.004;2023-05-07T01:43:16;0.60;99.90
34985;DHT22;21190;58.750;17.004;2023-05-07T01:45:44;0.70;99.90
34985;DHT22;21190;58.750;17.004;2023-05-07T01:48:12;0.70;99.90
34985;DHT22;21190;58.750;17.004;2023-05-07T01:50:41;0.60;99.90
34985;DHT22;21190;58.750;17.004;2023-05-07T01:53:09;0.60;99.90
34985;DHT22;21190;58.750;17.004;2023-05-07T01:55:36;0.50;99.90
34985;DHT22;21190;58.750;17.004;2023-05-07T01:58:06;0.50;99.90
34985;DHT22;21190;58.750;17.004;2023-05-07T02:00:33;0.40;99.90
34985;DHT22;21190;58.750;17.004;2023-05-07T02:03:00;0.40;99.90
34985;DHT22;21190;58.750;17.004;2023-05-07T02:05:27;0.30;99.90
34985;DHT22;21190;58.750;17.004;2023-05-07T02:07:54;0.30;99.90
34985;DHT22;21190;58.750;17.004;2023-05-07T02:10:21;0.30;99.90
34985;DHT22;21190;58.750;17.004;2023-05-07T02:12:48;0.20;99.90
34985;DHT22;21190;58.750;17.004;2023-05-07T02:15:15;0.20;99.90
34985;DHT22;21190;58.750;17.004;2023-05-07T02:18:01;0.20;99.90
34985;DHT22;21190;58.750;17.004;2023-05-07T02:20:28;0.20;99.90
34985;DHT22;21190;58.750;17.004;2023-05-07T02:22:56;0.20;99.90
34985;DHT22;21190;58.750;17.004;2023-05-07T02:25:22;0.20;99.90
34985;DHT22;21190;58.750;17.004;2023-05-07T02:27:49;0.10;99.90
34985;DHT22;21190;58.750;17.004;2023-05-07T02:30:16;0.10;99.90
34985;DHT22;21190;58.750;17.004;2023-05-07T02:32:43;0.10;99.90
34985;DHT22;21190;58.750;17.004;2023-05-07T02:35:11;0.00;99.90
34985;DHT22;21190;58.750;17.004;2023-05-07T02:37:38;0.00;99.90
34985;DHT22;21190;58.750;17.004;2023-05-07T02:40:05;0.00;99.90
34985;DHT22;21190;58.750;17.004;2023-05-07T02:42:32;0.10;99.90
34985;DHT22;21190;58.750;17.004;2023-05-07T02:44:59;0.00;99.90
34985;DHT22;21190;58.750;17.004;2023-05-07T02:47:26;0.10;99.90
34985;DHT22;21190;58.750;17.004;2023-05-07T02:49:54;0.10;99.90
34985;DHT22;21190;58.750;17.004;2023-05-07T02:52:22;0.10;99.90
34985;DHT22;21190;58.750;17.004;2023-05-07T02:54:49;0.10;99.90
34985;DHT22;21190;58.750;17.004;2023-05-07T02:57:16;0.10;99.90
34985;DHT22;21190;58.750;17.004;2023-05-07T02:59:43;0.20;99.90
34985;DHT22;21190;58.750;17.004;2023-05-07T03:02:10;0.20;99.90
34985;DHT22;21190;58.750;17.004;2023-05-07T03:04:37;0.10;99.90
34985;DHT22;21190;58.750;17.004;2023-05-07T03:07:04;0.10;99.90
34985;DHT22;21190;58.750;17.004;2023-05-07T03:09:31;0.10;99.90
34985;DHT22;21190;58.750;17.004;2023-05-07T03:11:58;0.10;99.90
34985;DHT22;21190;58.750;17.004;2023-05-07T03:14:25;0.10;99.90
34985;DHT22;21190;58.750;17.004;2023-05-07T03:16:52;0.10;99.90
34985;DHT22;21190;58.750;17.004;2023-05-07T03:19:18;0.10;99.90
34985;DHT22;21190;58.750;17.004;2023-05-07T03:21:45;0.20;99.90
34985;DHT22;21190;58.750;17.004;2023-05-07T03:24:12;0.30;99.90
34985;DHT22;21190;58.750;17.004;2023-05-07T03:26:39;0.30;99.90
34985;DHT22;21190;58.750;17.004;2023-05-07T03:29:06;0.20;99.90
34985;DHT22;21190;58.750;17.004;2023-05-07T03:31:33;0.20;99.90
34985;DHT22;21190;58.750;17.004;2023-05-07T03:34:00;0.20;99.90
34985;DHT22;21190;58.750;17.004;2023-05-07T03:36:27;0.30;99.90
34985;DHT22;21190;58.750;17.004;2023-05-07T03:38:54;0.20;99.90
34985;DHT22;21190;58.750;17.004;2023-05-07T03:41:21;0.30;99.90
34985;DHT22;21190;58.750;17.004;2023-05-07T03:43:48;0.30;99.90
34985;DHT22;21190;58.750;17.004;2023-05-07T03:46:15;0.30;99.90
34985;DHT22;21190;58.750;17.004;2023-05-07T03:48:42;0.40;99.90
34985;DHT22;21190;58.750;17.004;2023-05-07T03:51:09;0.40;99.90
34985;DHT22;21190;58.750;17.004;2023-05-07T03:53:36;0.40;99.90
34985;DHT22;21190;58.750;17.004;2023-05-07T03:56:03;0.50;99.90
34985;DHT22;21190;58.750;17.004;2023-05-07T03:58:30;0.50;99.90
34985;DHT22;21190;58.750;17.004;2023-05-07T04:00:57;0.50;99.90
34985;DHT22;21190;58.750;17.004;2023-05-07T04:03:24;0.60;99.90
34985;DHT22;21190;58.750;17.004;2023-05-07T04:05:51;0.50;99.90
34985;DHT22;21190;58.750;17.004;2023-05-07T04:08:18;0.50;99.90
34985;DHT22;21190;58.750;17.004;2023-05-07T04:10:45;0.50;99.90
34985;DHT22;21190;58.750;17.004;2023-05-07T04:13:13;0.50;99.90
34985;DHT22;21190;58.750;17.004;2023-05-07T04:15:40;0.50;99.90
34985;DHT22;21190;58.750;17.004;2023-05-07T04:18:07;0.40;99.90
34985;DHT22;21190;58.750;17.004;2023-05-07T04:20:34;0.40;99.90
34985;DHT22;21190;58.750;17.004;2023-05-07T04:23:03;0.50;99.90
34985;DHT22;21190;58.750;17.004;2023-05-07T04:25:29;0.60;99.90
34985;DHT22;21190;58.750;17.004;2023-05-07T04:27:57;0.70;99.90
34985;DHT22;21190;58.750;17.004;2023-05-07T04:30:24;0.90;99.90
34985;DHT22;21190;58.750;17.004;2023-05-07T04:32:51;1.00;99.90
34985;DHT22;21190;58.750;17.004;2023-05-07T04:35:18;1.00;99.90
34985;DHT22;21190;58.750;17.004;2023-05-07T04:37:45;1.10;99.90
34985;DHT22;21190;58.750;17.004;2023-05-07T04:40:12;1.10;99.90
34985;DHT22;21190;58.750;17.004;2023-05-07T04:42:39;1.20;99.90
34985;DHT22;21190;58.750;17.004;2023-05-07T04:45:07;1.10;99.90
34985;DHT22;21190;58.750;17.004;2023-05-07T04:47:35;1.20;99.90
34985;DHT22;21190;58.750;17.004;2023-05-07T04:50:02;1.20;99.90
34985;DHT22;21190;58.750;17.004;2023-05-07T04:52:29;1.20;99.90
34985;DHT22;21190;58.750;17.004;2023-05-07T04:54:56;1.30;99.90
34985;DHT22;21190;58.750;17.004;2023-05-07T04:57:23;1.40;99.90
34985;DHT22;21190;58.750;17.004;2023-05-07T04:59:50;1.40;99.90
34985;DHT22;21190;58.750;17.004;2023-05-07T05:02:16;1.50;99.90
34985;DHT22;21190;58.750;17.004;2023-05-07T05:04:46;1.50;99.90
34985;DHT22;21190;58.750;17.004;2023-05-07T05:07:13;1.60;99.90
34985;DHT22;21190;58.750;17.004;2023-05-07T05:09:40;1.70;99.90
34985;DHT22;21190;58.750;17.004;2023-05-07T05:12:07;1.70;99.90
34985;DHT22;21190;58.750;17.004;2023-05-07T05:14:34;1.80;99.90
34985;DHT22;21190;58.750;17.004;2023-05-07T05:17:00;1.90;99.90
34985;DHT22;21190;58.750;17.004;2023-05-07T05:19:27;2.00;99.90
34985;DHT22;21190;58.750;17.004;2023-05-07T05:21:54;2.10;99.90
34985;DHT22;21190;58.750;17.004;2023-05-07T05:24:21;2.20;99.90
34985;DHT22;21190;58.750;17.004;2023-05-07T05:26:48;2.30;99.90
34985;DHT22;21190;58.750;17.004;2023-05-07T05:29:15;2.30;99.90
34985;DHT22;21190;58.750;17.004;2023-05-07T05:31:42;2.40;99.90
34985;DHT22;21190;58.750;17.004;2023-05-07T05:34:09;2.50;99.90
34985;DHT22;21190;58.750;17.004;2023-05-07T05:36:36;2.60;99.90
34985;DHT22;21190;58.750;17.004;2023-05-07T05:39:04;2.70;99.90
34985;DHT22;21190;58.750;17.004;2023-05-07T05:41:31;2.80;99.90
34985;DHT22;21190;58.750;17.004;2023-05-07T05:43:58;2.90;99.90
34985;DHT22;21190;58.750;17.004;2023-05-07T05:46:24;3.00;99.90
34985;DHT22;21190;58.750;17.004;2023-05-07T05:48:51;3.10;99.90
34985;DHT22;21190;58.750;17.004;2023-05-07T05:51:20;3.20;99.90
34985;DHT22;21190;58.750;17.004;2023-05-07T05:53:47;3.40;99.90
34985;DHT22;21190;58.750;17.004;2023-05-07T05:56:15;3.50;99.90
34985;DHT22;21190;58.750;17.004;2023-05-07T05:58:42;3.60;99.90
34985;DHT22;21190;58.750;17.004;2023-05-07T06:01:09;3.70;99.90
34985;DHT22;21190;58.750;17.004;2023-05-07T06:03:38;3.80;99.90
34985;DHT22;21190;58.750;17.004;2023-05-07T06:06:05;3.90;99.90
34985;DHT22;21190;58.750;17.004;2023-05-07T06:08:32;4.00;99.90
34985;DHT22;21190;58.750;17.004;2023-05-07T06:10:59;4.20;99.90
34985;DHT22;21190;58.750;17.004;2023-05-07T06:13:26;4.30;99.90
34985;DHT22;21190;58.750;17.004;2023-05-07T06:15:53;4.50;99.90
34985;DHT22;21190;58.750;17.004;2023-05-07T06:18:20;4.50;99.90
34985;DHT22;21190;58.750;17.004;2023-05-07T06:20:47;4.70;99.90
34985;DHT22;21190;58.750;17.004;2023-05-07T06:23:14;4.70;99.90
34985;DHT22;21190;58.750;17.004;2023-05-07T06:25:48;4.90;99.90
34985;DHT22;21190;58.750;17.004;2023-05-07T06:28:16;5.00;99.90
34985;DHT22;21190;58.750;17.004;2023-05-07T06:30:43;5.10;99.90
34985;DHT22;21190;58.750;17.004;2023-05-07T06:33:10;5.20;99.90
34985;DHT22;21190;58.750;17.004;2023-05-07T06:35:37;5.20;99.90
34985;DHT22;21190;58.750;17.004;2023-05-07T06:38:04;5.20;99.90
34985;DHT22;21190;58.750;17.004;2023-05-07T06:40:31;5.30;99.90
34985;DHT22;21190;58.750;17.004;2023-05-07T06:42:58;5.30;99.90
34985;DHT22;21190;58.750;17.004;2023-05-07T06:45:25;5.40;99.90
34985;DHT22;21190;58.750;17.004;2023-05-07T06:47:52;5.40;99.90
34985;DHT22;21190;58.750;17.004;2023-05-07T06:50:19;5.50;99.90
34985;DHT22;21190;58.750;17.004;2023-05-07T06:52:46;5.50;99.90
34985;DHT22;21190;58.750;17.004;2023-05-07T06:55:13;5.60;99.90
34985;DHT22;21190;58.750;17.004;2023-05-07T06:57:40;5.70;99.90
34985;DHT22;21190;58.750;17.004;2023-05-07T07:00:07;5.80;99.90
34985;DHT22;21190;58.750;17.004;2023-05-07T07:02:37;5.80;99.90
34985;DHT22;21190;58.750;17.004;2023-05-07T07:05:04;5.90;99.90
34985;DHT22;21190;58.750;17.004;2023-05-07T07:07:31;6.00;99.90
34985;DHT22;21190;58.750;17.004;2023-05-07T07:09:58;6.00;99.90
34985;DHT22;21190;58.750;17.004;2023-05-07T07:12:25;6.00;99.90
34985;DHT22;21190;58.750;17.004;2023-05-07T07:14:52;6.00;99.90
34985;DHT22;21190;58.750;17.004;2023-05-07T07:17:20;6.00;99.90
34985;DHT22;21190;58.750;17.004;2023-05-07T07:19:47;6.10;99.90
34985;DHT22;21190;58.750;17.004;2023-05-07T07:22:14;6.10;99.90
34985;DHT22;21190;58.750;17.004;2023-05-07T07:24:41;6.10;99.90
34985;DHT22;21190;58.750;17.004;2023-05-07T07:27:08;6.20;99.90
34985;DHT22;21190;58.750;17.004;2023-05-07T07:29:35;6.20;99.90
34985;DHT22;21190;58.750;17.004;2023-05-07T07:32:02;6.20;99.90
34985;DHT22;21190;58.750;17.004;2023-05-07T07:34:29;6.30;99.90
34985;DHT22;21190;58.750;17.004;2023-05-07T07:36:56;6.40;99.90
34985;DHT22;21190;58.750;17.004;2023-05-07T07:39:23;6.40;99.90
34985;DHT22;21190;58.750;17.004;2023-05-07T07:41:50;6.50;99.90
34985;DHT22;21190;58.750;17.004;2023-05-07T07:44:17;6.60;99.90
34985;DHT22;21190;58.750;17.004;2023-05-07T07:46:44;6.60;99.90
34985;DHT22;21190;58.750;17.004;2023-05-07T07:49:11;6.60;99.90
34985;DHT22;21190;58.750;17.004;2023-05-07T07:51:38;6.60;99.90
34985;DHT22;21190;58.750;17.004;2023-05-07T07:54:05;6.60;99.90
34985;DHT22;21190;58.750;17.004;2023-05-07T07:56:32;6.70;99.90
34985;DHT22;21190;58.750;17.004;2023-05-07T07:59:02;6.70;99.90
34985;DHT22;21190;58.750;17.004;2023-05-07T08:01:30;6.80;99.90
34985;DHT22;21190;58.750;17.004;2023-05-07T08:03:57;6.80;99.90
34985;DHT22;21190;58.750;17.004;2023-05-07T08:06:27;6.90;99.90
34985;DHT22;21190;58.750;17.004;2023-05-07T08:08:54;6.90;99.90
34985;DHT22;21190;58.750;17.004;2023-05-07T08:11:21;7.00;99.90
34985;DHT22;21190;58.750;17.004;2023-05-07T08:13:48;7.00;99.90
34985;DHT22;21190;58.750;17.004;2023-05-07T08:16:15;7.00;99.90
34985;DHT22;21190;58.750;17.004;2023-05-07T08:18:42;7.10;99.90
34985;DHT22;21190;58.750;17.004;2023-05-07T08:21:09;7.20;99.90
34985;DHT22;21190;58.750;17.004;2023-05-07T08:23:36;7.30;99.90
34985;DHT22;21190;58.750;17.004;2023-05-07T08:26:03;7.40;99.90
34985;DHT22;21190;58.750;17.004;2023-05-07T08:28:30;7.40;99.90
34985;DHT22;21190;58.750;17.004;2023-05-07T08:30:57;7.50;99.90
34985;DHT22;21190;58.750;17.004;2023-05-07T08:33:26;7.50;99.90
34985;DHT22;21190;58.750;17.004;2023-05-07T08:35:53;7.60;99.90
34985;DHT22;21190;58.750;17.004;2023-05-07T08:38:20;7.60;99.90
34985;DHT22;21190;58.750;17.004;2023-05-07T08:40:47;7.70;99.90
34985;DHT22;21190;58.750;17.004;2023-05-07T08:43:14;7.70;99.90
34985;DHT22;21190;58.750;17.004;2023-05-07T08:45:41;7.80;99.90
34985;DHT22;21190;58.750;17.004;2023-05-07T08:48:15;7.90;99.90
34985;DHT22;21190;58.750;17.004;2023-05-07T08:50:42;7.90;99.90
34985;DHT22;21190;58.750;17.004;2023-05-07T08:53:10;7.90;99.90
34985;DHT22;21190;58.750;17.004;2023-05-07T08:55:36;7.90;99.90
34985;DHT22;21190;58.750;17.004;2023-05-07T08:58:03;7.90;99.90
34985;DHT22;21190;58.750;17.004;2023-05-07T09:00:30;7.90;99.90
34985;DHT22;21190;58.750;17.004;2023-05-07T09:02:59;7.90;99.90
34985;DHT22;21190;58.750;17.004;2023-05-07T09:05:27;8.00;99.90
34985;DHT22;21190;58.750;17.004;2023-05-07T09:07:53;8.00;99.90
34985;DHT22;21190;58.750;17.004;2023-05-07T09:10:24;8.00;99.90
34985;DHT22;21190;58.750;17.004;2023-05-07T09:12:52;8.10;99.90
34985;DHT22;21190;58.750;17.004;2023-05-07T09:15:19;8.00;99.90
34985;DHT22;21190;58.750;17.004;2023-05-07T09:17:46;8.00;99.90
34985;DHT22;21190;58.750;17.004;2023-05-07T09:20:13;8.00;99.90
34985;DHT22;21190;58.750;17.004;2023-05-07T09:22:40;8.00;99.90
34985;DHT22;21190;58.750;17.004;2023-05-07T09:25:07;8.00;99.90
34985;DHT22;21190;58.750;17.004;2023-05-07T09:27:35;8.10;99.90
34985;DHT22;21190;58.750;17.004;2023-05-07T09:30:06;8.20;99.90
34985;DHT22;21190;58.750;17.004;2023-05-07T09:32:37;8.20;99.90
34985;DHT22;21190;58.750;17.004;2023-05-07T09:35:14;8.30;99.90
34985;DHT22;21190;58.750;17.004;2023-05-07T09:37:42;8.30;99.90
34985;DHT22;21190;58.750;17.004;2023-05-07T09:40:23;8.30;99.90
34985;DHT22;21190;58.750;17.004;2023-05-07T09:42:51;8.40;99.90
34985;DHT22;21190;58.750;17.004;2023-05-07T09:45:25;8.30;99.90
34985;DHT22;21190;58.750;17.004;2023-05-07T09:47:57;8.50;99.90
34985;DHT22;21190;58.750;17.004;2023-05-07T09:50:29;8.50;99.90
34985;DHT22;21190;58.750;17.004;2023-05-07T09:52:57;8.50;99.90
34985;DHT22;21190;58.750;17.004;2023-05-07T09:55:24;8.60;99.90
34985;DHT22;21190;58.750;17.004;2023-05-07T09:57:53;8.60;99.90
34985;DHT22;21190;58.750;17.004;2023-05-07T10:00:21;8.60;99.90
34985;DHT22;21190;58.750;17.004;2023-05-07T10:02:50;8.60;99.90
34985;DHT22;21190;58.750;17.004;2023-05-07T10:05:19;8.60;99.90
34985;DHT22;21190;58.750;17.004;2023-05-07T10:07:48;8.60;99.90
34985;DHT22;21190;58.750;17.004;2023-05-07T10:10:15;8.60;99.90
34985;DHT22;21190;58.750;17.004;2023-05-07T10:12:43;8.70;99.90
34985;DHT22;21190;58.750;17.004;2023-05-07T10:15:11;8.80;99.90
34985;DHT22;21190;58.750;17.004;2023-05-07T10:17:39;8.90;99.90
34985;DHT22;21190;58.750;17.004;2023-05-07T10:20:07;8.90;99.90
34985;DHT22;21190;58.750;17.004;2023-05-07T10:22:43;8.90;99.90
34985;DHT22;21190;58.750;17.004;2023-05-07T10:25:30;8.90;99.90
34985;DHT22;21190;58.750;17.004;2023-05-07T10:28:01;8.90;99.90
34985;DHT22;21190;58.750;17.004;2023-05-07T10:33:23;8.90;99.90
34985;DHT22;21190;58.750;17.004;2023-05-07T10:35:57;8.90;99.90
34985;DHT22;21190;58.750;17.004;2023-05-07T10:38:26;8.90;99.90
34985;DHT22;21190;58.750;17.004;2023-05-07T10:40:53;9.00;99.90
34985;DHT22;21190;58.750;17.004;2023-05-07T10:43:20;9.00;99.90
34985;DHT22;21190;58.750;17.004;2023-05-07T10:46:10;9.10;99.90
34985;DHT22;21190;58.750;17.004;2023-05-07T10:51:33;9.20;99.90
34985;DHT22;21190;58.750;17.004;2023-05-07T11:01:59;9.30;99.90
34985;DHT22;21190;58.750;17.004;2023-05-07T11:04:29;9.30;99.90
34985;DHT22;21190;58.750;17.004;2023-05-07T11:09:54;9.40;99.90
34985;DHT22;21190;58.750;17.004;2023-05-07T11:15:12;9.30;99.90
34985;DHT22;21190;58.750;17.004;2023-05-07T11:17:56;9.40;99.90
34985;DHT22;21190;58.750;17.004;2023-05-07T11:26:04;9.50;99.90
34985;DHT22;21190;58.750;17.004;2023-05-07T11:28:39;9.50;99.90
34985;DHT22;21190;58.750;17.004;2023-05-07T11:31:07;9.50;99.90
34985;DHT22;21190;58.750;17.004;2023-05-07T11:33:35;9.60;99.90
34985;DHT22;21190;58.750;17.004;2023-05-07T11:36:03;9.50;99.90
34985;DHT22;21190;58.750;17.004;2023-05-07T11:38:35;9.50;99.90
34985;DHT22;21190;58.750;17.004;2023-05-07T11:41:02;9.50;99.90
34985;DHT22;21190;58.750;17.004;2023-05-07T11:43:32;9.50;99.90
34985;DHT22;21190;58.750;17.004;2023-05-07T11:46:09;9.50;99.90
34985;DHT22;21190;58.750;17.004;2023-05-07T11:48:38;9.50;99.90
34985;DHT22;21190;58.750;17.004;2023-05-07T11:51:06;9.40;99.90
34985;DHT22;21190;58.750;17.004;2023-05-07T11:53:36;9.40;99.90
34985;DHT22;21190;58.750;17.004;2023-05-07T11:56:12;9.50;99.90
34985;DHT22;21190;58.750;17.004;2023-05-07T11:58:40;9.50;99.90
34985;DHT22;21190;58.750;17.004;2023-05-07T12:01:12;9.50;99.90
34985;DHT22;21190;58.750;17.004;2023-05-07T12:03:43;9.50;99.90
34985;DHT22;21190;58.750;17.004;2023-05-07T12:06:13;9.60;99.90
34985;DHT22;21190;58.750;17.004;2023-05-07T12:08:41;9.70;99.90
34985;DHT22;21190;58.750;17.004;2023-05-07T12:11:10;9.70;99.90
34985;DHT22;21190;58.750;17.004;2023-05-07T12:13:39;9.70;99.90
34985;DHT22;21190;58.750;17.004;2023-05-07T12:16:06;9.70;99.90
34985;DHT22;21190;58.750;17.004;2023-05-07T12:18:37;9.70;99.90
34985;DHT22;21190;58.750;17.004;2023-05-07T12:21:05;9.60;99.90
34985;DHT22;21190;58.750;17.004;2023-05-07T12:23:34;9.70;99.90
34985;DHT22;21190;58.750;17.004;2023-05-07T12:26:02;9.80;99.90
34985;DHT22;21190;58.750;17.004;2023-05-07T12:28:37;9.80;99.90
34985;DHT22;21190;58.750;17.004;2023-05-07T12:31:05;9.90;99.90
34985;DHT22;21190;58.750;17.004;2023-05-07T12:33:34;9.90;99.90
34985;DHT22;21190;58.750;17.004;2023-05-07T12:36:04;10.00;99.90
34985;DHT22;21190;58.750;17.004;2023-05-07T12:38:39;9.90;99.90
34985;DHT22;21190;58.750;17.004;2023-05-07T12:41:09;10.00;99.90
34985;DHT22;21190;58.750;17.004;2023-05-07T12:43:36;10.00;99.90
34985;DHT22;21190;58.750;17.004;2023-05-07T12:46:05;9.90;99.90
34985;DHT22;21190;58.750;17.004;2023-05-07T12:48:32;9.80;99.90
34985;DHT22;21190;58.750;17.004;2023-05-07T12:51:00;9.70;99.90
34985;DHT22;21190;58.750;17.004;2023-05-07T12:53:29;9.70;99.90
34985;DHT22;21190;58.750;17.004;2023-05-07T12:55:58;9.70;99.90
34985;DHT22;21190;58.750;17.004;2023-05-07T12:58:27;9.60;99.90
34985;DHT22;21190;58.750;17.004;2023-05-07T13:00:55;9.60;99.90
34985;DHT22;21190;58.750;17.004;2023-05-07T13:03:37;9.70;99.90
34985;DHT22;21190;58.750;17.004;2023-05-07T13:06:07;9.70;99.90
34985;DHT22;21190;58.750;17.004;2023-05-07T13:08:41;9.80;99.90
34985;DHT22;21190;58.750;17.004;2023-05-07T13:11:12;9.80;99.90
34985;DHT22;21190;58.750;17.004;2023-05-07T13:13:40;9.90;99.90
34985;DHT22;21190;58.750;17.004;2023-05-07T13:16:09;10.00;99.90
34985;DHT22;21190;58.750;17.004;2023-05-07T13:18:39;10.00;99.90
34985;DHT22;21190;58.750;17.004;2023-05-07T13:21:07;10.10;99.90
34985;DHT22;21190;58.750;17.004;2023-05-07T13:23:34;10.10;99.90
34985;DHT22;21190;58.750;17.004;2023-05-07T13:26:01;10.10;99.90
34985;DHT22;21190;58.750;17.004;2023-05-07T13:28:37;10.10;99.90
34985;DHT22;21190;58.750;17.004;2023-05-07T13:31:04;10.20;99.90
34985;DHT22;21190;58.750;17.004;2023-05-07T13:33:30;10.20;99.90
34985;DHT22;21190;58.750;17.004;2023-05-07T13:35:57;10.30;99.90
34985;DHT22;21190;58.750;17.004;2023-05-07T13:38:24;10.40;99.90
34985;DHT22;21190;58.750;17.004;2023-05-07T13:40:51;10.40;99.90
34985;DHT22;21190;58.750;17.004;2023-05-07T13:43:19;10.40;99.90
34985;DHT22;21190;58.750;17.004;2023-05-07T13:45:46;10.50;99.90
34985;DHT22;21190;58.750;17.004;2023-05-07T13:48:13;10.60;99.90
34985;DHT22;21190;58.750;17.004;2023-05-07T13:50:40;10.70;99.90
34985;DHT22;21190;58.750;17.004;2023-05-07T13:53:08;10.70;99.90
34985;DHT22;21190;58.750;17.004;2023-05-07T13:55:35;10.80;99.90
34985;DHT22;21190;58.750;17.004;2023-05-07T13:58:02;10.90;99.90
34985;DHT22;21190;58.750;17.004;2023-05-07T14:00:33;10.90;99.90
34985;DHT22;21190;58.750;17.004;2023-05-07T14:03:00;11.00;99.90
34985;DHT22;21190;58.750;17.004;2023-05-07T14:05:27;11.00;99.90
34985;DHT22;21190;58.750;17.004;2023-05-07T14:07:57;11.10;99.90
34985;DHT22;21190;58.750;17.004;2023-05-07T14:10:24;11.10;99.90
34985;DHT22;21190;58.750;17.004;2023-05-07T14:12:51;11.10;99.90
34985;DHT22;21190;58.750;17.004;2023-05-07T14:15:19;11.00;99.90
34985;DHT22;21190;58.750;17.004;2023-05-07T14:17:46;10.90;99.90
34985;DHT22;21190;58.750;17.004;2023-05-07T14:20:13;10.90;99.90
34985;DHT22;21190;58.750;17.004;2023-05-07T14:22:41;11.00;99.90
34985;DHT22;21190;58.750;17.004;2023-05-07T14:25:08;11.00;99.90
34985;DHT22;21190;58.750;17.004;2023-05-07T14:27:36;11.20;99.90
34985;DHT22;21190;58.750;17.004;2023-05-07T14:30:04;11.20;99.90
34985;DHT22;21190;58.750;17.004;2023-05-07T14:32:32;11.20;99.90
34985;DHT22;21190;58.750;17.004;2023-05-07T14:34:59;11.30;99.90
34985;DHT22;21190;58.750;17.004;2023-05-07T14:37:26;11.40;99.90
34985;DHT22;21190;58.750;17.004;2023-05-07T14:39:53;11.60;99.90
34985;DHT22;21190;58.750;17.004;2023-05-07T14:42:20;11.80;99.90
34985;DHT22;21190;58.750;17.004;2023-05-07T14:44:47;12.00;99.90
34985;DHT22;21190;58.750;17.004;2023-05-07T14:47:15;12.10;99.90
34985;DHT22;21190;58.750;17.004;2023-05-07T14:49:45;12.20;99.90
34985;DHT22;21190;58.750;17.004;2023-05-07T14:52:12;12.30;99.90
34985;DHT22;21190;58.750;17.004;2023-05-07T14:54:39;12.40;99.90
34985;DHT22;21190;58.750;17.004;2023-05-07T14:57:08;12.50;99.90
34985;DHT22;21190;58.750;17.004;2023-05-07T14:59:37;12.70;99.90
34985;DHT22;21190;58.750;17.004;2023-05-07T15:02:04;12.60;99.90
34985;DHT22;21190;58.750;17.004;2023-05-07T15:04:33;12.70;99.90
34985;DHT22;21190;58.750;17.004;2023-05-07T15:07:00;12.70;99.90
34985;DHT22;21190;58.750;17.004;2023-05-07T15:09:27;12.80;99.90
34985;DHT22;21190;58.750;17.004;2023-05-07T15:11:54;12.90;99.90
34985;DHT22;21190;58.750;17.004;2023-05-07T15:14:21;13.00;99.90
34985;DHT22;21190;58.750;17.004;2023-05-07T15:16:49;13.00;99.90
34985;DHT22;21190;58.750;17.004;2023-05-07T15:19:16;13.00;99.90
34985;DHT22;21190;58.750;17.004;2023-05-07T15:21:43;13.00;99.90
34985;DHT22;21190;58.750;17.004;2023-05-07T15:24:10;13.00;99.90
34985;DHT22;21190;58.750;17.004;2023-05-07T15:26:37;13.20;99.90
34985;DHT22;21190;58.750;17.004;2023-05-07T15:29:04;13.30;99.90
34985;DHT22;21190;58.750;17.004;2023-05-07T15:31:37;13.40;99.90
34985;DHT22;21190;58.750;17.004;2023-05-07T15:34:05;13.50;99.90
34985;DHT22;21190;58.750;17.004;2023-05-07T15:36:32;13.50;99.90
34985;DHT22;21190;58.750;17.004;2023-05-07T15:38:59;13.60;99.90
34985;DHT22;21190;58.750;17.004;2023-05-07T15:41:28;13.70;99.90
34985;DHT22;21190;58.750;17.004;2023-05-07T15:43:55;13.80;99.00
34985;DHT22;21190;58.750;17.004;2023-05-07T15:46:23;13.70;99.90
34985;DHT22;21190;58.750;17.004;2023-05-07T15:48:52;13.60;99.90
34985;DHT22;21190;58.750;17.004;2023-05-07T15:51:19;13.40;99.90
34985;DHT22;21190;58.750;17.004;2023-05-07T15:53:46;13.30;99.90
34985;DHT22;21190;58.750;17.004;2023-05-07T15:56:13;13.20;99.90
34985;DHT22;21190;58.750;17.004;2023-05-07T15:58:40;13.00;99.90